Weather History for KTRL - September, 2013

Change the Weather History Date:

Friday, September 20, 2013

  Actual Average (KDFW) Record (KDFW)
Temperature  
Mean Temperature 73 °F 76 °F  
Max Temperature 77 °F 87 °F 102 °F (1953)
Min Temperature 71 °F 66 °F 46 °F (1971)
Degree Days  
Heating Degree Days 0 0  
Month to date heating degree days 0  
Since 1 July heating degree days 0  
Cooling Degree Days 8 12  
Month to date cooling degree days 297  
Year to date cooling degree days 2479  
Growing Degree Days 23 (Base 50)    
Moisture  
Dew Point 73 °F    
Average Humidity 98    
Maximum Humidity 100    
Minimum Humidity 87    
Precipitation  
Precipitation 2.95 in 0.08 in 3.00 in (1964)
Month to date precipitation 1.78  
Year to date precipitation 25.89  
Sea Level Pressure  
Sea Level Pressure 29.87 in    
Wind  
Wind Speed 7 mph (NNE)    
Max Wind Speed 18 mph    
Max Gust Speed 24 mph    
Visibility 6 miles    
Events Rain , Thunderstorm    
T = Trace of Precipitation, MM = Missing Value Source: NWS Daily Summary

Daily Weather History Graph

Daily Weather History Graph

Search for Another Location

Airport or City:

Trip Planner

Search our weather history database for the weather conditions in past years. The results will help you decide how hot, cold, wet, or windy it might be!

Date:

Astronomy

Sep. 20, 2013 Rise Set
Actual Time 7:12 AM CDT 7:24 PM CDT
Civil Twilight 6:47 AM CDT 7:48 PM CDT
Nautical Twilight 6:18 AM CDT 8:17 PM CDT
Astronomical Twilight 5:49 AM CDT 8:46 PM CDT
Moon 8:06 PM CDT (9/20) 8:21 AM CDT (9/20)
Length of Visible Light 13h 01m
Length of Day
12h 11m
Full, 98% of the Moon is Illuminated
Sep 20
Full
Sep 26
Last Quarter
Oct 4
New
Oct 11
First Quarter
Oct 18
Full

Hourly Weather History & Observations

Time (CDT) Temp. Dew Point Humidity Pressure Visibility Wind Dir Wind Speed Gust Speed Precip Events Conditions
12:53 AM 75.0 °F 75.0 °F 100% 29.92 in 10.0 mi NNE 5.8 mph - 0.05 in Rain Light Rain
1:53 AM 75.0 °F 75.0 °F 100% 29.91 in 6.0 mi NNE 5.8 mph - 0.03 in Rain Rain
2:00 AM 73.4 °F 73.4 °F 100% 29.92 in 6.0 mi NE 5.8 mph - 0.01 in Rain Rain
2:15 AM 73.4 °F 73.4 °F 100% 29.92 in 5.0 mi NNE 6.9 mph - 0.03 in Rain Rain
2:28 AM 73.4 °F 73.4 °F 100% 29.91 in 6.0 mi ENE 5.8 mph - 0.04 in Rain Light Rain
2:53 AM 73.9 °F 73.9 °F 100% 29.89 in 8.0 mi NE 4.6 mph - 0.05 in Rain Light Rain
3:28 AM 73.4 °F 73.4 °F 100% 29.90 in 4.0 mi NE 9.2 mph - 0.05 in Rain Heavy Rain
3:53 AM 73.9 °F 73.9 °F 100% 29.87 in 6.0 mi NE 5.8 mph - 0.13 in Rain Light Rain
4:02 AM 73.4 °F 73.4 °F 100% 29.89 in 8.0 mi NE 6.9 mph - 0.00 in Rain Light Rain
4:13 AM 73.4 °F 73.4 °F 100% 29.88 in 7.0 mi NE 6.9 mph - 0.00 in Rain Light Rain
4:40 AM 75.2 °F 75.2 °F 100% 29.90 in 1.8 mi SE 9.2 mph - 0.18 in Rain Heavy Rain
4:42 AM 75.2 °F 75.2 °F 100% 29.89 in 1.2 mi ESE 8.1 mph - 0.30 in Rain , Thunderstorm Heavy Rain
4:50 AM 75.2 °F 75.2 °F 100% 29.88 in 1.0 mi Calm Calm - 0.44 in Rain , Thunderstorm Heavy Rain
4:53 AM 75.0 °F 75.0 °F 100% 29.86 in 1.8 mi Calm Calm - 0.45 in Rain , Thunderstorm Heavy Rain
4:56 AM 75.2 °F 75.2 °F 100% 29.88 in 3.0 mi Calm Calm - 0.01 in Rain , Thunderstorm Heavy Rain
4:59 AM 75.2 °F 75.2 °F 100% 29.88 in 4.0 mi Calm Calm - 0.02 in Rain , Thunderstorm Rain
5:19 AM 75.2 °F 75.2 °F 100% 29.88 in 3.0 mi Calm Calm - 0.09 in Rain Heavy Rain
5:23 AM 75.2 °F 75.2 °F 100% 29.88 in 1.8 mi NE 3.5 mph - 0.24 in Rain Heavy Rain
5:40 AM 73.4 °F 73.4 °F 100% 29.87 in 2.5 mi North 8.1 mph - 0.40 in Rain Heavy Rain
5:44 AM 73.4 °F 73.4 °F 100% 29.87 in 3.0 mi North 6.9 mph - 0.43 in Rain Heavy Rain
5:53 AM 73.9 °F 73.9 °F 100% 29.85 in 3.0 mi North 8.1 mph - 0.52 in Rain Heavy Rain
6:00 AM 73.4 °F 73.4 °F 100% 29.86 in 2.5 mi NNE 8.1 mph - 0.05 in Rain Heavy Rain
6:08 AM 73.4 °F 73.4 °F 100% 29.86 in 4.0 mi NNE 8.1 mph - 0.08 in Rain Heavy Rain
6:21 AM 73.4 °F 73.4 °F 100% 29.87 in 1.8 mi North 5.8 mph - 0.23 in Rain Heavy Rain
6:28 AM 73.4 °F 73.4 °F 100% 29.87 in 1.5 mi North 4.6 mph - 0.36 in Rain Heavy Rain
6:36 AM 73.4 °F 73.4 °F 100% 29.87 in 3.0 mi NE 5.8 mph - 0.38 in Rain Heavy Rain
6:48 AM 73.4 °F 73.4 °F 100% 29.86 in 5.0 mi North 5.8 mph - 0.42 in Rain Rain
6:53 AM 75.0 °F 75.0 °F 100% 29.84 in 5.0 mi North 5.8 mph - 0.43 in Rain Heavy Rain
7:02 AM 73.4 °F 73.4 °F 100% 29.86 in 5.0 mi NNE 8.1 mph - 0.03 in Rain , Thunderstorm Rain
7:12 AM 73.4 °F 73.4 °F 100% 29.87 in 2.5 mi NNE 5.8 mph - 0.13 in Rain Heavy Rain
7:16 AM 73.4 °F 73.4 °F 100% 29.87 in 1.8 mi North 3.5 mph - 0.20 in Rain Heavy Rain
7:23 AM 73.4 °F 73.4 °F 100% 29.86 in 1.5 mi NE 8.1 mph - 0.32 in Rain Heavy Rain
7:30 AM 73.4 °F 73.4 °F 100% 29.86 in 2.0 mi NE 5.8 mph - 0.41 in Rain Heavy Rain
7:40 AM 73.4 °F 73.4 °F 100% 29.87 in 3.0 mi North 5.8 mph - 0.47 in Rain Heavy Rain
7:44 AM 73.4 °F 73.4 °F 100% 29.87 in 2.0 mi North 4.6 mph - 0.54 in Rain Heavy Rain
7:53 AM 73.9 °F 73.9 °F 100% 29.85 in 1.0 mi NNE 8.1 mph - 0.83 in Rain Heavy Rain
8:11 AM 73.4 °F 73.4 °F 100% 29.87 in 2.5 mi NNE 4.6 mph - 0.14 in Rain Heavy Rain
8:21 AM 73.4 °F 73.4 °F 100% 29.87 in 3.0 mi NE 9.2 mph - 0.18 in Rain Heavy Rain
8:35 AM 73.4 °F 73.4 °F 100% 29.86 in 5.0 mi ENE 8.1 mph - 0.20 in Rain Rain
8:46 AM 73.4 °F 73.4 °F 100% 29.86 in 9.0 mi ENE 6.9 mph - 0.21 in Rain Light Rain
8:53 AM 73.9 °F 73.9 °F 100% 29.86 in 10.0 mi ENE 8.1 mph - 0.21 in Rain Light Rain
9:53 AM 73.9 °F 73.9 °F 100% 29.85 in 10.0 mi NE 12.7 mph 20.7 mph 0.01 in   Overcast
10:10 AM 73.4 °F 73.4 °F 100% 29.88 in 10.0 mi NE 18.4 mph 24.2 mph N/A   Overcast
10:53 AM 73.0 °F 73.0 °F 100% 29.88 in 9.0 mi NE 11.5 mph - 0.01 in Rain Rain
11:01 AM 73.4 °F 73.4 °F 100% 29.89 in 7.0 mi NE 12.7 mph - 0.02 in Rain Rain
11:53 AM 73.0 °F 73.0 °F 100% 29.86 in 4.0 mi NNE 11.5 mph - 0.16 in Rain Rain
12:04 PM 73.4 °F 73.4 °F 100% 29.88 in 10.0 mi NNE 10.4 mph - 0.01 in Rain Light Rain
12:20 PM 73.4 °F 73.4 °F 100% 29.88 in 10.0 mi NNE 12.7 mph - 0.01 in Rain Light Rain
12:53 PM 73.9 °F 73.9 °F 100% 29.86 in 10.0 mi NE 9.2 mph - 0.01 in   Overcast
1:00 PM 75.2 °F 73.4 °F 94% 29.87 in 10.0 mi NE 11.5 mph 18.4 mph N/A   Overcast
1:17 PM 75.2 °F 73.4 °F 94% 29.87 in 10.0 mi NE 10.4 mph - N/A   Overcast
1:53 PM 75.0 °F 72.0 °F 90% 29.86 in 10.0 mi NE 10.4 mph 18.4 mph N/A   Overcast
2:04 PM 75.2 °F 71.6 °F 89% 29.87 in 1.8 mi NNE 11.5 mph - N/A   Overcast
2:19 PM 75.2 °F 71.6 °F 89% 29.87 in 10.0 mi NE 9.2 mph - N/A   Overcast
2:33 PM 75.2 °F 71.6 °F 89% 29.85 in 10.0 mi NNE 11.5 mph - N/A   Overcast
2:53 PM 75.9 °F 72.0 °F 87% 29.83 in 10.0 mi NE 12.7 mph - N/A   Overcast
3:13 PM 75.2 °F 71.6 °F 89% 29.85 in 10.0 mi NNE 9.2 mph - N/A   Overcast
3:31 PM 75.2 °F 71.6 °F 89% 29.86 in 10.0 mi NE 8.1 mph - N/A   Overcast
3:53 PM 73.9 °F 73.0 °F 97% 29.84 in 4.0 mi NE 11.5 mph - 0.02 in Rain Heavy Rain
4:19 PM 73.4 °F 73.4 °F 100% 29.85 in 10.0 mi NNE 10.4 mph - 0.02 in Rain Light Rain
4:40 PM 73.4 °F 73.4 °F 100% 29.85 in 10.0 mi NNE 11.5 mph - 0.03 in Rain Light Rain
4:53 PM 73.9 °F 73.0 °F 97% 29.84 in 10.0 mi NNE 9.2 mph - 0.03 in Rain Light Rain
5:49 PM 73.4 °F 71.6 °F 94% 29.87 in 10.0 mi North 8.1 mph - 0.00 in Rain Light Rain
5:53 PM 73.0 °F 72.0 °F 96% 29.86 in 10.0 mi North 6.9 mph - 0.00 in Rain Light Rain
6:10 PM 73.4 °F 71.6 °F 94% 29.87 in 10.0 mi North 9.2 mph - 0.00 in   Overcast
6:53 PM 73.0 °F 71.1 °F 93% 29.86 in 10.0 mi North 8.1 mph - 0.00 in   Mostly Cloudy
7:53 PM 73.0 °F 71.1 °F 93% 29.86 in 10.0 mi North 8.1 mph - 0.00 in   Clear
8:53 PM 73.0 °F 72.0 °F 96% 29.86 in 10.0 mi North 8.1 mph - 0.00 in Rain Light Rain
9:53 PM 73.0 °F 72.0 °F 96% 29.86 in 10.0 mi North 8.1 mph - 0.01 in   Overcast
10:50 PM 73.4 °F 71.6 °F 94% 29.90 in 10.0 mi North 10.4 mph 18.4 mph N/A   Overcast
10:53 PM 73.0 °F 71.1 °F 93% 29.88 in 10.0 mi North 15.0 mph 23.0 mph N/A   Overcast
11:12 PM 73.4 °F 69.8 °F 88% 29.91 in 10.0 mi North 15.0 mph 21.9 mph N/A   Overcast
11:36 PM 71.6 °F 69.8 °F 94% 29.91 in 10.0 mi North 11.5 mph 18.4 mph N/A   Overcast
11:53 PM 71.1 °F 69.1 °F 93% 29.89 in 10.0 mi North 9.2 mph - N/A   Scattered Clouds